sensor_id;sensor_type;location;lat;lon;timestamp;temperature;humidity
1005;DHT22;491;53.480;10.174;2023-03-19T00:01:06;13.30;1.00
1005;DHT22;491;53.480;10.174;2023-03-19T00:03:33;13.30;1.00
1005;DHT22;491;53.480;10.174;2023-03-19T00:05:59;13.30;1.00
1005;DHT22;491;53.480;10.174;2023-03-19T00:08:25;13.30;1.00
1005;DHT22;491;53.480;10.174;2023-03-19T00:10:50;13.30;3.70
1005;DHT22;491;53.480;10.174;2023-03-19T00:13:18;13.30;6.50
1005;DHT22;491;53.480;10.174;2023-03-19T00:15:45;13.20;8.50
1005;DHT22;491;53.480;10.174;2023-03-19T00:18:12;13.20;27.30
1005;DHT22;491;53.480;10.174;2023-03-19T00:20:38;13.20;39.80
1005;DHT22;491;53.480;10.174;2023-03-19T00:23:11;13.10;81.00
1005;DHT22;491;53.480;10.174;2023-03-19T00:25:38;12.90;93.60
1005;DHT22;491;53.480;10.174;2023-03-19T00:28:04;12.90;99.90
1005;DHT22;491;53.480;10.174;2023-03-19T00:30:30;12.90;99.90
1005;DHT22;491;53.480;10.174;2023-03-19T00:32:59;13.00;99.90
1005;DHT22;491;53.480;10.174;2023-03-19T00:35:24;12.90;99.90
1005;DHT22;491;53.480;10.174;2023-03-19T00:38:04;13.00;99.90
1005;DHT22;491;53.480;10.174;2023-03-19T00:40:29;13.10;99.90
1005;DHT22;491;53.480;10.174;2023-03-19T00:42:55;13.10;99.90
1005;DHT22;491;53.480;10.174;2023-03-19T00:45:20;13.10;98.50
1005;DHT22;491;53.480;10.174;2023-03-19T00:47:46;13.20;99.90
1005;DHT22;491;53.480;10.174;2023-03-19T00:50:11;13.20;99.90
1005;DHT22;491;53.480;10.174;2023-03-19T00:52:41;13.20;74.70
1005;DHT22;491;53.480;10.174;2023-03-19T00:55:10;13.20;99.90
1005;DHT22;491;53.480;10.174;2023-03-19T00:57:56;13.30;99.30
1005;DHT22;491;53.480;10.174;2023-03-19T01:00:21;13.20;60.60
1005;DHT22;491;53.480;10.174;2023-03-19T01:02:48;13.20;99.90
1005;DHT22;491;53.480;10.174;2023-03-19T01:05:27;13.10;99.70
1005;DHT22;491;53.480;10.174;2023-03-19T01:07:53;13.10;99.90
1005;DHT22;491;53.480;10.174;2023-03-19T01:10:27;13.20;95.60
1005;DHT22;491;53.480;10.174;2023-03-19T01:13:18;13.20;76.80
1005;DHT22;491;53.480;10.174;2023-03-19T01:15:43;13.30;56.60
1005;DHT22;491;53.480;10.174;2023-03-19T01:18:30;13.30;29.60
1005;DHT22;491;53.480;10.174;2023-03-19T01:21:16;13.40;14.30
1005;DHT22;491;53.480;10.174;2023-03-19T01:23:49;13.30;1.00
1005;DHT22;491;53.480;10.174;2023-03-19T01:26:29;13.30;1.00
1005;DHT22;491;53.480;10.174;2023-03-19T01:28:57;13.20;1.00
1005;DHT22;491;53.480;10.174;2023-03-19T01:31:29;13.10;1.00
1005;DHT22;491;53.480;10.174;2023-03-19T01:33:54;13.10;1.00
1005;DHT22;491;53.480;10.174;2023-03-19T01:36:20;13.00;1.00
1005;DHT22;491;53.480;10.174;2023-03-19T01:38:45;13.00;1.00
1005;DHT22;491;53.480;10.174;2023-03-19T01:41:15;13.00;1.00
1005;DHT22;491;53.480;10.174;2023-03-19T01:43:44;13.00;4.50
1005;DHT22;491;53.480;10.174;2023-03-19T01:46:25;13.00;18.60
1005;DHT22;491;53.480;10.174;2023-03-19T01:49:02;13.00;17.40
1005;DHT22;491;53.480;10.174;2023-03-19T01:51:47;12.90;51.70
1005;DHT22;491;53.480;10.174;2023-03-19T01:54:21;12.90;69.70
1005;DHT22;491;53.480;10.174;2023-03-19T01:57:07;12.90;40.40
1005;DHT22;491;53.480;10.174;2023-03-19T01:59:36;12.90;41.50
1005;DHT22;491;53.480;10.174;2023-03-19T02:02:26;12.90;39.10
1005;DHT22;491;53.480;10.174;2023-03-19T02:05:13;12.90;59.70
1005;DHT22;491;53.480;10.174;2023-03-19T02:07:59;12.90;96.00
1005;DHT22;491;53.480;10.174;2023-03-19T02:10:28;12.90;95.10
1005;DHT22;491;53.480;10.174;2023-03-19T02:13:03;13.00;99.90
1005;DHT22;491;53.480;10.174;2023-03-19T02:15:29;13.10;99.90
1005;DHT22;491;53.480;10.174;2023-03-19T02:18:09;13.10;99.90
1005;DHT22;491;53.480;10.174;2023-03-19T02:20:47;13.00;99.90
1005;DHT22;491;53.480;10.174;2023-03-19T02:23:44;13.10;99.90
1005;DHT22;491;53.480;10.174;2023-03-19T02:26:14;13.10;99.90
1005;DHT22;491;53.480;10.174;2023-03-19T02:28:53;13.10;99.90
1005;DHT22;491;53.480;10.174;2023-03-19T02:31:39;13.10;99.90
1005;DHT22;491;53.480;10.174;2023-03-19T02:37:03;13.10;99.90
1005;DHT22;491;53.480;10.174;2023-03-19T02:40:03;13.20;99.90
1005;DHT22;491;53.480;10.174;2023-03-19T02:42:32;13.10;99.90
1005;DHT22;491;53.480;10.174;2023-03-19T02:44:57;13.10;99.90
1005;DHT22;491;53.480;10.174;2023-03-19T02:47:43;13.10;99.90
1005;DHT22;491;53.480;10.174;2023-03-19T02:50:20;12.90;99.90
1005;DHT22;491;53.480;10.174;2023-03-19T02:53:05;13.00;99.90
1005;DHT22;491;53.480;10.174;2023-03-19T02:55:46;12.80;99.90
1005;DHT22;491;53.480;10.174;2023-03-19T02:58:45;12.80;99.90
1005;DHT22;491;53.480;10.174;2023-03-19T03:01:17;12.90;99.90
1005;DHT22;491;53.480;10.174;2023-03-19T03:03:44;12.80;99.90
1005;DHT22;491;53.480;10.174;2023-03-19T03:06:10;12.70;99.90
1005;DHT22;491;53.480;10.174;2023-03-19T03:08:39;12.60;99.90
1005;DHT22;491;53.480;10.174;2023-03-19T03:11:11;12.60;99.90
1005;DHT22;491;53.480;10.174;2023-03-19T03:13:42;12.60;99.90
1005;DHT22;491;53.480;10.174;2023-03-19T03:16:15;12.70;99.90
1005;DHT22;491;53.480;10.174;2023-03-19T03:19:01;12.70;99.90
1005;DHT22;491;53.480;10.174;2023-03-19T03:21:27;12.60;99.90
1005;DHT22;491;53.480;10.174;2023-03-19T03:23:53;12.50;99.90
1005;DHT22;491;53.480;10.174;2023-03-19T03:26:19;12.50;99.90
1005;DHT22;491;53.480;10.174;2023-03-19T03:28:45;12.40;99.90
1005;DHT22;491;53.480;10.174;2023-03-19T03:31:10;12.40;99.90
1005;DHT22;491;53.480;10.174;2023-03-19T03:33:36;12.30;99.90
1005;DHT22;491;53.480;10.174;2023-03-19T03:36:02;12.30;99.90
1005;DHT22;491;53.480;10.174;2023-03-19T03:38:27;12.40;99.90
1005;DHT22;491;53.480;10.174;2023-03-19T03:40:53;12.40;99.90
1005;DHT22;491;53.480;10.174;2023-03-19T03:43:19;12.30;99.90
1005;DHT22;491;53.480;10.174;2023-03-19T03:45:46;12.20;99.90
1005;DHT22;491;53.480;10.174;2023-03-19T03:48:12;12.10;99.90
1005;DHT22;491;53.480;10.174;2023-03-19T03:50:38;12.10;99.90
1005;DHT22;491;53.480;10.174;2023-03-19T03:53:03;12.10;99.90
1005;DHT22;491;53.480;10.174;2023-03-19T03:55:29;11.90;99.90
1005;DHT22;491;53.480;10.174;2023-03-19T03:57:56;12.00;99.90
1005;DHT22;491;53.480;10.174;2023-03-19T04:00:21;12.00;99.90
1005;DHT22;491;53.480;10.174;2023-03-19T04:02:48;11.90;99.90
1005;DHT22;491;53.480;10.174;2023-03-19T04:05:14;11.90;99.90
1005;DHT22;491;53.480;10.174;2023-03-19T04:07:39;11.80;99.90
1005;DHT22;491;53.480;10.174;2023-03-19T04:10:05;11.90;99.90
1005;DHT22;491;53.480;10.174;2023-03-19T04:12:31;11.90;99.90
1005;DHT22;491;53.480;10.174;2023-03-19T04:14:59;11.70;99.90
1005;DHT22;491;53.480;10.174;2023-03-19T04:17:32;11.70;99.90
1005;DHT22;491;53.480;10.174;2023-03-19T04:19:58;11.70;99.90
1005;DHT22;491;53.480;10.174;2023-03-19T04:22:23;11.70;99.90
1005;DHT22;491;53.480;10.174;2023-03-19T04:24:49;11.70;99.90
1005;DHT22;491;53.480;10.174;2023-03-19T04:27:14;11.90;99.90
1005;DHT22;491;53.480;10.174;2023-03-19T04:29:40;11.90;99.90
1005;DHT22;491;53.480;10.174;2023-03-19T04:32:06;11.80;99.90
1005;DHT22;491;53.480;10.174;2023-03-19T04:34:31;11.70;99.90
1005;DHT22;491;53.480;10.174;2023-03-19T04:36:57;11.60;99.90
1005;DHT22;491;53.480;10.174;2023-03-19T04:39:23;11.70;99.90
1005;DHT22;491;53.480;10.174;2023-03-19T04:41:49;11.70;99.90
1005;DHT22;491;53.480;10.174;2023-03-19T04:44:15;11.60;99.90
1005;DHT22;491;53.480;10.174;2023-03-19T04:46:41;11.60;99.90
1005;DHT22;491;53.480;10.174;2023-03-19T04:49:07;11.60;99.90
1005;DHT22;491;53.480;10.174;2023-03-19T04:51:32;11.60;99.90
1005;DHT22;491;53.480;10.174;2023-03-19T04:53:58;11.40;99.90
1005;DHT22;491;53.480;10.174;2023-03-19T04:56:24;11.40;99.90
1005;DHT22;491;53.480;10.174;2023-03-19T04:58:49;11.30;99.90
1005;DHT22;491;53.480;10.174;2023-03-19T05:01:15;11.30;99.90
1005;DHT22;491;53.480;10.174;2023-03-19T05:03:41;11.20;99.90
1005;DHT22;491;53.480;10.174;2023-03-19T05:06:06;11.20;99.90
1005;DHT22;491;53.480;10.174;2023-03-19T05:08:32;11.10;99.90
1005;DHT22;491;53.480;10.174;2023-03-19T05:10:58;11.20;99.90
1005;DHT22;491;53.480;10.174;2023-03-19T05:13:23;11.20;99.90
1005;DHT22;491;53.480;10.174;2023-03-19T05:15:52;11.20;99.90
1005;DHT22;491;53.480;10.174;2023-03-19T05:18:18;11.20;99.90
1005;DHT22;491;53.480;10.174;2023-03-19T05:20:44;11.10;99.90
1005;DHT22;491;53.480;10.174;2023-03-19T05:23:10;11.10;99.90
1005;DHT22;491;53.480;10.174;2023-03-19T05:25:35;11.20;99.90
1005;DHT22;491;53.480;10.174;2023-03-19T05:28:02;11.10;99.90
1005;DHT22;491;53.480;10.174;2023-03-19T05:30:27;11.10;99.90
1005;DHT22;491;53.480;10.174;2023-03-19T05:32:55;11.10;99.90
1005;DHT22;491;53.480;10.174;2023-03-19T05:35:20;11.20;99.90
1005;DHT22;491;53.480;10.174;2023-03-19T05:37:47;11.10;99.90
1005;DHT22;491;53.480;10.174;2023-03-19T05:40:12;11.20;99.90
1005;DHT22;491;53.480;10.174;2023-03-19T05:42:37;11.10;99.90
1005;DHT22;491;53.480;10.174;2023-03-19T05:45:03;11.10;99.90
1005;DHT22;491;53.480;10.174;2023-03-19T05:47:30;11.10;99.90
1005;DHT22;491;53.480;10.174;2023-03-19T05:49:56;11.10;99.90
1005;DHT22;491;53.480;10.174;2023-03-19T05:52:21;11.00;99.90
1005;DHT22;491;53.480;10.174;2023-03-19T05:54:47;11.10;99.90
1005;DHT22;491;53.480;10.174;2023-03-19T05:57:14;11.00;99.90
1005;DHT22;491;53.480;10.174;2023-03-19T05:59:40;11.00;99.90
1005;DHT22;491;53.480;10.174;2023-03-19T06:02:06;11.00;99.90
1005;DHT22;491;53.480;10.174;2023-03-19T06:04:31;10.90;99.90
1005;DHT22;491;53.480;10.174;2023-03-19T06:06:57;10.90;99.90
1005;DHT22;491;53.480;10.174;2023-03-19T06:09:23;10.90;99.90
1005;DHT22;491;53.480;10.174;2023-03-19T06:11:48;11.00;99.90
1005;DHT22;491;53.480;10.174;2023-03-19T06:14:14;11.00;99.90
1005;DHT22;491;53.480;10.174;2023-03-19T06:16:40;11.00;99.90
1005;DHT22;491;53.480;10.174;2023-03-19T06:19:05;11.00;99.90
1005;DHT22;491;53.480;10.174;2023-03-19T06:21:30;11.10;99.90
1005;DHT22;491;53.480;10.174;2023-03-19T06:23:56;11.20;99.90
1005;DHT22;491;53.480;10.174;2023-03-19T06:26:22;11.30;99.90
1005;DHT22;491;53.480;10.174;2023-03-19T06:28:47;11.50;99.90
1005;DHT22;491;53.480;10.174;2023-03-19T06:31:13;11.60;99.90
1005;DHT22;491;53.480;10.174;2023-03-19T06:33:39;11.70;99.90
1005;DHT22;491;53.480;10.174;2023-03-19T06:36:04;11.70;99.90
1005;DHT22;491;53.480;10.174;2023-03-19T06:38:30;11.80;99.90
1005;DHT22;491;53.480;10.174;2023-03-19T06:40:56;11.90;99.90
1005;DHT22;491;53.480;10.174;2023-03-19T06:43:22;12.10;99.90
1005;DHT22;491;53.480;10.174;2023-03-19T06:45:48;12.40;99.90
1005;DHT22;491;53.480;10.174;2023-03-19T06:48:14;13.00;99.90
1005;DHT22;491;53.480;10.174;2023-03-19T06:50:40;13.50;99.90
1005;DHT22;491;53.480;10.174;2023-03-19T06:53:06;14.10;99.90
1005;DHT22;491;53.480;10.174;2023-03-19T06:55:32;14.60;99.90
1005;DHT22;491;53.480;10.174;2023-03-19T06:58:00;15.30;1.00
1005;DHT22;491;53.480;10.174;2023-03-19T07:00:26;15.60;99.90
1005;DHT22;491;53.480;10.174;2023-03-19T07:02:52;16.30;99.90
1005;DHT22;491;53.480;10.174;2023-03-19T07:05:17;16.70;1.00
1005;DHT22;491;53.480;10.174;2023-03-19T07:07:43;17.20;99.90
1005;DHT22;491;53.480;10.174;2023-03-19T07:10:09;17.80;99.90
1005;DHT22;491;53.480;10.174;2023-03-19T07:12:34;18.20;1.00
1005;DHT22;491;53.480;10.174;2023-03-19T07:15:00;18.40;1.00
1005;DHT22;491;53.480;10.174;2023-03-19T07:17:26;18.70;1.00
1005;DHT22;491;53.480;10.174;2023-03-19T07:19:51;18.90;99.90
1005;DHT22;491;53.480;10.174;2023-03-19T07:22:17;19.10;99.90
1005;DHT22;491;53.480;10.174;2023-03-19T07:24:43;19.40;99.90
1005;DHT22;491;53.480;10.174;2023-03-19T07:27:10;19.70;99.90
1005;DHT22;491;53.480;10.174;2023-03-19T07:29:38;20.20;99.90
1005;DHT22;491;53.480;10.174;2023-03-19T07:32:04;20.60;99.90
1005;DHT22;491;53.480;10.174;2023-03-19T07:34:30;20.70;99.90
1005;DHT22;491;53.480;10.174;2023-03-19T07:36:55;20.90;99.90
1005;DHT22;491;53.480;10.174;2023-03-19T07:39:24;20.80;99.90
1005;DHT22;491;53.480;10.174;2023-03-19T07:41:49;20.90;99.90
1005;DHT22;491;53.480;10.174;2023-03-19T07:44:17;20.90;99.90
1005;DHT22;491;53.480;10.174;2023-03-19T07:46:42;20.90;99.90
1005;DHT22;491;53.480;10.174;2023-03-19T07:49:08;20.20;99.90
1005;DHT22;491;53.480;10.174;2023-03-19T07:51:34;19.90;99.90
1005;DHT22;491;53.480;10.174;2023-03-19T07:53:59;20.10;99.90
1005;DHT22;491;53.480;10.174;2023-03-19T07:56:25;20.40;99.90
1005;DHT22;491;53.480;10.174;2023-03-19T07:58:51;20.50;99.90
1005;DHT22;491;53.480;10.174;2023-03-19T08:01:17;20.70;99.90
1005;DHT22;491;53.480;10.174;2023-03-19T08:03:43;20.60;99.90
1005;DHT22;491;53.480;10.174;2023-03-19T08:06:08;20.40;99.90
1005;DHT22;491;53.480;10.174;2023-03-19T08:08:34;19.80;99.90
1005;DHT22;491;53.480;10.174;2023-03-19T08:11:01;19.40;99.90
1005;DHT22;491;53.480;10.174;2023-03-19T08:13:26;18.90;99.90
1005;DHT22;491;53.480;10.174;2023-03-19T08:15:52;18.20;99.90
1005;DHT22;491;53.480;10.174;2023-03-19T08:18:18;17.60;99.90
1005;DHT22;491;53.480;10.174;2023-03-19T08:20:47;17.20;99.90
1005;DHT22;491;53.480;10.174;2023-03-19T08:23:13;16.80;1.00
1005;DHT22;491;53.480;10.174;2023-03-19T08:25:40;16.60;1.00
1005;DHT22;491;53.480;10.174;2023-03-19T08:28:06;16.50;1.00
1005;DHT22;491;53.480;10.174;2023-03-19T08:30:34;16.40;99.90
1005;DHT22;491;53.480;10.174;2023-03-19T08:33:03;16.40;99.90
1005;DHT22;491;53.480;10.174;2023-03-19T08:35:29;16.10;1.00
1005;DHT22;491;53.480;10.174;2023-03-19T08:37:55;15.90;99.90
1005;DHT22;491;53.480;10.174;2023-03-19T08:40:22;15.80;1.00
1005;DHT22;491;53.480;10.174;2023-03-19T08:42:48;15.90;99.90
1005;DHT22;491;53.480;10.174;2023-03-19T08:45:14;16.00;99.90
1005;DHT22;491;53.480;10.174;2023-03-19T08:47:42;16.10;1.00
1005;DHT22;491;53.480;10.174;2023-03-19T08:50:08;16.20;1.00
1005;DHT22;491;53.480;10.174;2023-03-19T08:52:34;16.40;1.00
1005;DHT22;491;53.480;10.174;2023-03-19T08:55:00;16.80;1.00
1005;DHT22;491;53.480;10.174;2023-03-19T08:57:28;17.20;1.00
1005;DHT22;491;53.480;10.174;2023-03-19T08:59:54;18.00;8.70
1005;DHT22;491;53.480;10.174;2023-03-19T09:02:19;19.20;1.00
1005;DHT22;491;53.480;10.174;2023-03-19T09:04:45;20.40;99.90
1005;DHT22;491;53.480;10.174;2023-03-19T09:07:11;21.60;99.90
1005;DHT22;491;53.480;10.174;2023-03-19T09:09:47;22.80;99.90
1005;DHT22;491;53.480;10.174;2023-03-19T09:12:35;24.00;99.90
1005;DHT22;491;53.480;10.174;2023-03-19T09:15:25;25.20;99.90
1005;DHT22;491;53.480;10.174;2023-03-19T09:17:58;26.30;97.90
1005;DHT22;491;53.480;10.174;2023-03-19T09:20:38;27.10;92.00
1005;DHT22;491;53.480;10.174;2023-03-19T09:23:03;27.80;69.80
1005;DHT22;491;53.480;10.174;2023-03-19T09:25:29;28.30;57.10
1005;DHT22;491;53.480;10.174;2023-03-19T09:27:57;28.40;40.50
1005;DHT22;491;53.480;10.174;2023-03-19T09:30:23;28.80;35.20
1005;DHT22;491;53.480;10.174;2023-03-19T09:32:48;29.00;30.00
1005;DHT22;491;53.480;10.174;2023-03-19T09:35:14;29.00;25.00
1005;DHT22;491;53.480;10.174;2023-03-19T09:37:40;28.90;21.50
1005;DHT22;491;53.480;10.174;2023-03-19T09:40:06;28.80;17.50
1005;DHT22;491;53.480;10.174;2023-03-19T09:42:57;28.80;13.50
1005;DHT22;491;53.480;10.174;2023-03-19T09:45:26;28.20;4.20
1005;DHT22;491;53.480;10.174;2023-03-19T09:47:55;27.80;1.00
1005;DHT22;491;53.480;10.174;2023-03-19T09:50:40;28.10;1.10
1005;DHT22;491;53.480;10.174;2023-03-19T09:56:11;29.30;4.60
1005;DHT22;491;53.480;10.174;2023-03-19T09:58:47;29.40;1.20
1005;DHT22;491;53.480;10.174;2023-03-19T10:01:32;28.60;1.00
1005;DHT22;491;53.480;10.174;2023-03-19T10:06:53;27.20;1.00
1005;DHT22;491;53.480;10.174;2023-03-19T10:09:44;26.70;1.00
1005;DHT22;491;53.480;10.174;2023-03-19T10:15:27;26.20;1.00
1005;DHT22;491;53.480;10.174;2023-03-19T10:18:48;26.70;1.00
1005;DHT22;491;53.480;10.174;2023-03-19T10:21:20;27.50;1.00
1005;DHT22;491;53.480;10.174;2023-03-19T10:24:10;28.40;1.00
1005;DHT22;491;53.480;10.174;2023-03-19T10:26:36;28.50;1.00
1005;DHT22;491;53.480;10.174;2023-03-19T10:29:15;28.90;1.00
1005;DHT22;491;53.480;10.174;2023-03-19T10:34:40;29.30;1.00
1005;DHT22;491;53.480;10.174;2023-03-19T10:37:22;30.10;1.00
1005;DHT22;491;53.480;10.174;2023-03-19T10:39:51;30.20;1.00
1005;DHT22;491;53.480;10.174;2023-03-19T10:42:38;29.80;1.00
1005;DHT22;491;53.480;10.174;2023-03-19T10:47:40;30.40;1.00
1005;DHT22;491;53.480;10.174;2023-03-19T10:50:15;31.00;1.00
1005;DHT22;491;53.480;10.174;2023-03-19T10:52:44;31.00;1.00
1005;DHT22;491;53.480;10.174;2023-03-19T10:55:24;31.40;1.00
1005;DHT22;491;53.480;10.174;2023-03-19T10:57:55;31.60;1.00
1005;DHT22;491;53.480;10.174;2023-03-19T11:00:25;31.70;1.00
1005;DHT22;491;53.480;10.174;2023-03-19T11:02:54;31.70;1.00
1005;DHT22;491;53.480;10.174;2023-03-19T11:07:49;31.40;1.00
1005;DHT22;491;53.480;10.174;2023-03-19T11:10:16;30.70;1.00
1005;DHT22;491;53.480;10.174;2023-03-19T11:12:47;30.10;1.00
1005;DHT22;491;53.480;10.174;2023-03-19T11:15:26;29.90;1.00
1005;DHT22;491;53.480;10.174;2023-03-19T11:18:01;29.60;1.00
1005;DHT22;491;53.480;10.174;2023-03-19T11:20:33;29.80;1.00
1005;DHT22;491;53.480;10.174;2023-03-19T11:23:00;29.80;1.00
1005;DHT22;491;53.480;10.174;2023-03-19T11:25:29;29.90;1.00
1005;DHT22;491;53.480;10.174;2023-03-19T11:28:11;29.80;1.00
1005;DHT22;491;53.480;10.174;2023-03-19T11:33:52;29.20;1.00
1005;DHT22;491;53.480;10.174;2023-03-19T11:36:26;28.50;1.00
1005;DHT22;491;53.480;10.174;2023-03-19T11:39:28;27.80;1.00
1005;DHT22;491;53.480;10.174;2023-03-19T11:42:34;27.40;1.00
1005;DHT22;491;53.480;10.174;2023-03-19T11:50:56;26.20;1.00
1005;DHT22;491;53.480;10.174;2023-03-19T11:53:41;25.70;1.00
1005;DHT22;491;53.480;10.174;2023-03-19T11:56:31;25.40;1.00
1005;DHT22;491;53.480;10.174;2023-03-19T12:05:32;23.60;1.00
1005;DHT22;491;53.480;10.174;2023-03-19T12:08:24;23.30;1.00
1005;DHT22;491;53.480;10.174;2023-03-19T12:22:38;21.80;1.00
1005;DHT22;491;53.480;10.174;2023-03-19T12:25:23;21.50;1.00
1005;DHT22;491;53.480;10.174;2023-03-19T12:28:00;20.60;1.00
1005;DHT22;491;53.480;10.174;2023-03-19T12:30:38;18.60;1.00
1005;DHT22;491;53.480;10.174;2023-03-19T12:33:18;17.60;99.90
1005;DHT22;491;53.480;10.174;2023-03-19T12:35:49;17.10;99.90
1005;DHT22;491;53.480;10.174;2023-03-19T12:38:37;16.80;99.90
1005;DHT22;491;53.480;10.174;2023-03-19T12:41:10;16.60;1.00
1005;DHT22;491;53.480;10.174;2023-03-19T12:46:32;16.60;1.00
1005;DHT22;491;53.480;10.174;2023-03-19T12:49:07;16.60;1.00
1005;DHT22;491;53.480;10.174;2023-03-19T12:51:38;16.70;1.00
1005;DHT22;491;53.480;10.174;2023-03-19T12:54:23;16.90;99.90
1005;DHT22;491;53.480;10.174;2023-03-19T12:57:03;17.00;99.90
1005;DHT22;491;53.480;10.174;2023-03-19T12:59:50;17.30;99.90
1005;DHT22;491;53.480;10.174;2023-03-19T13:08:00;17.70;99.90
1005;DHT22;491;53.480;10.174;2023-03-19T13:10:29;17.80;99.90
1005;DHT22;491;53.480;10.174;2023-03-19T13:12:57;17.90;99.90
1005;DHT22;491;53.480;10.174;2023-03-19T13:15:38;17.90;99.90
1005;DHT22;491;53.480;10.174;2023-03-19T13:18:18;17.90;2.60
1005;DHT22;491;53.480;10.174;2023-03-19T13:21:14;18.00;3.80
1005;DHT22;491;53.480;10.174;2023-03-19T13:23:44;18.00;1.00
1005;DHT22;491;53.480;10.174;2023-03-19T13:26:12;18.10;16.00
1005;DHT22;491;53.480;10.174;2023-03-19T13:28:54;18.10;7.50
1005;DHT22;491;53.480;10.174;2023-03-19T13:31:24;18.20;1.00
1005;DHT22;491;53.480;10.174;2023-03-19T13:36:26;18.30;1.00
1005;DHT22;491;53.480;10.174;2023-03-19T13:38:52;18.30;1.00
1005;DHT22;491;53.480;10.174;2023-03-19T13:43:58;18.20;1.00
1005;DHT22;491;53.480;10.174;2023-03-19T13:46:37;18.10;1.00
1005;DHT22;491;53.480;10.174;2023-03-19T13:51:47;18.10;99.90
1005;DHT22;491;53.480;10.174;2023-03-19T13:54:18;18.20;99.90
1005;DHT22;491;53.480;10.174;2023-03-19T13:59:27;18.10;99.90
1005;DHT22;491;53.480;10.174;2023-03-19T14:01:54;18.10;99.90
1005;DHT22;491;53.480;10.174;2023-03-19T14:04:31;17.90;1.00
1005;DHT22;491;53.480;10.174;2023-03-19T14:07:18;17.80;99.90
1005;DHT22;491;53.480;10.174;2023-03-19T14:10:01;17.60;99.90
1005;DHT22;491;53.480;10.174;2023-03-19T14:12:36;17.50;99.90
1005;DHT22;491;53.480;10.174;2023-03-19T14:17:43;17.30;1.00
1005;DHT22;491;53.480;10.174;2023-03-19T14:25:27;17.10;1.00
1005;DHT22;491;53.480;10.174;2023-03-19T14:28:16;17.10;1.00
1005;DHT22;491;53.480;10.174;2023-03-19T14:30:47;17.10;1.00
1005;DHT22;491;53.480;10.174;2023-03-19T14:33:47;17.20;68.00
1005;DHT22;491;53.480;10.174;2023-03-19T14:36:17;17.30;99.90
1005;DHT22;491;53.480;10.174;2023-03-19T14:39:15;17.20;34.40
1005;DHT22;491;53.480;10.174;2023-03-19T14:41:44;17.30;99.90
1005;DHT22;491;53.480;10.174;2023-03-19T14:49:51;17.00;1.00
1005;DHT22;491;53.480;10.174;2023-03-19T14:52:30;16.90;1.00
1005;DHT22;491;53.480;10.174;2023-03-19T14:54:59;16.80;1.00
1005;DHT22;491;53.480;10.174;2023-03-19T14:57:31;16.80;99.90
1005;DHT22;491;53.480;10.174;2023-03-19T15:00:00;16.80;99.90
1005;DHT22;491;53.480;10.174;2023-03-19T15:02:46;16.90;1.00
1005;DHT22;491;53.480;10.174;2023-03-19T15:05:30;17.10;99.90
1005;DHT22;491;53.480;10.174;2023-03-19T15:08:03;17.20;1.00
1005;DHT22;491;53.480;10.174;2023-03-19T15:10:37;17.10;99.90
1005;DHT22;491;53.480;10.174;2023-03-19T15:13:23;17.20;99.90
1005;DHT22;491;53.480;10.174;2023-03-19T15:18:26;17.20;1.00
1005;DHT22;491;53.480;10.174;2023-03-19T15:20:53;17.20;1.00
1005;DHT22;491;53.480;10.174;2023-03-19T15:23:26;17.10;1.00
1005;DHT22;491;53.480;10.174;2023-03-19T15:25:55;17.10;1.00
1005;DHT22;491;53.480;10.174;2023-03-19T15:28:23;16.90;1.00
1005;DHT22;491;53.480;10.174;2023-03-19T15:30:58;16.70;1.00
1005;DHT22;491;53.480;10.174;2023-03-19T15:33:38;16.80;1.00
1005;DHT22;491;53.480;10.174;2023-03-19T15:36:11;16.90;1.00
1005;DHT22;491;53.480;10.174;2023-03-19T15:38:47;17.00;1.00
1005;DHT22;491;53.480;10.174;2023-03-19T15:41:15;17.10;1.00
1005;DHT22;491;53.480;10.174;2023-03-19T15:43:41;17.20;99.90
1005;DHT22;491;53.480;10.174;2023-03-19T15:46:11;17.30;1.00
1005;DHT22;491;53.480;10.174;2023-03-19T15:48:44;17.30;1.00
1005;DHT22;491;53.480;10.174;2023-03-19T15:51:17;17.40;1.00
1005;DHT22;491;53.480;10.174;2023-03-19T15:53:44;17.40;99.90
1005;DHT22;491;53.480;10.174;2023-03-19T15:56:12;17.30;1.00
1005;DHT22;491;53.480;10.174;2023-03-19T15:58:43;17.30;99.90
1005;DHT22;491;53.480;10.174;2023-03-19T16:01:12;17.30;99.90
1005;DHT22;491;53.480;10.174;2023-03-19T16:03:41;17.30;99.90
1005;DHT22;491;53.480;10.174;2023-03-19T16:06:18;17.10;1.00
1005;DHT22;491;53.480;10.174;2023-03-19T16:08:47;17.10;1.00
1005;DHT22;491;53.480;10.174;2023-03-19T16:11:33;17.00;99.90
1005;DHT22;491;53.480;10.174;2023-03-19T16:14:00;17.10;1.00
1005;DHT22;491;53.480;10.174;2023-03-19T16:16:29;17.00;99.90
1005;DHT22;491;53.480;10.174;2023-03-19T16:18:56;16.90;1.00
1005;DHT22;491;53.480;10.174;2023-03-19T16:21:27;17.00;99.90
1005;DHT22;491;53.480;10.174;2023-03-19T16:23:59;17.00;57.10
1005;DHT22;491;53.480;10.174;2023-03-19T16:26:45;17.10;99.90
1005;DHT22;491;53.480;10.174;2023-03-19T16:29:26;17.20;99.90
1005;DHT22;491;53.480;10.174;2023-03-19T16:32:16;17.20;99.90
1005;DHT22;491;53.480;10.174;2023-03-19T16:34:45;17.10;99.90
1005;DHT22;491;53.480;10.174;2023-03-19T16:37:31;17.20;99.90
1005;DHT22;491;53.480;10.174;2023-03-19T16:42:50;17.30;1.00
1005;DHT22;491;53.480;10.174;2023-03-19T16:45:25;17.20;99.90
1005;DHT22;491;53.480;10.174;2023-03-19T16:47:52;17.20;99.90
1005;DHT22;491;53.480;10.174;2023-03-19T16:50:25;17.10;45.10
1005;DHT22;491;53.480;10.174;2023-03-19T16:52:53;17.10;40.80
1005;DHT22;491;53.480;10.174;2023-03-19T16:55:22;17.00;99.90
1005;DHT22;491;53.480;10.174;2023-03-19T16:57:59;17.00;99.90
1005;DHT22;491;53.480;10.174;2023-03-19T17:00:26;16.90;57.90
1005;DHT22;491;53.480;10.174;2023-03-19T17:02:56;16.90;6.00
1005;DHT22;491;53.480;10.174;2023-03-19T17:05:22;16.90;1.00
1005;DHT22;491;53.480;10.174;2023-03-19T17:07:48;16.90;1.00
1005;DHT22;491;53.480;10.174;2023-03-19T17:10:17;16.80;1.00
1005;DHT22;491;53.480;10.174;2023-03-19T17:12:44;16.80;1.00
1005;DHT22;491;53.480;10.174;2023-03-19T17:15:34;16.70;1.00
1005;DHT22;491;53.480;10.174;2023-03-19T17:18:01;16.70;4.80
1005;DHT22;491;53.480;10.174;2023-03-19T17:20:33;16.60;93.00
1005;DHT22;491;53.480;10.174;2023-03-19T17:23:00;16.50;99.90
1005;DHT22;491;53.480;10.174;2023-03-19T17:25:28;16.40;99.90
1005;DHT22;491;53.480;10.174;2023-03-19T17:27:54;16.40;1.00
1005;DHT22;491;53.480;10.174;2023-03-19T17:30:19;16.30;1.00
1005;DHT22;491;53.480;10.174;2023-03-19T17:32:47;16.30;1.00
1005;DHT22;491;53.480;10.174;2023-03-19T17:35:16;16.20;99.90
1005;DHT22;491;53.480;10.174;2023-03-19T17:37:43;16.00;99.90
1005;DHT22;491;53.480;10.174;2023-03-19T17:40:21;16.00;99.90
1005;DHT22;491;53.480;10.174;2023-03-19T17:42:52;16.00;1.00
1005;DHT22;491;53.480;10.174;2023-03-19T17:45:31;16.00;99.90
1005;DHT22;491;53.480;10.174;2023-03-19T17:47:57;16.00;99.90
1005;DHT22;491;53.480;10.174;2023-03-19T17:50:39;16.00;1.00
1005;DHT22;491;53.480;10.174;2023-03-19T17:53:07;16.00;1.00
1005;DHT22;491;53.480;10.174;2023-03-19T17:55:40;16.00;1.00
1005;DHT22;491;53.480;10.174;2023-03-19T17:58:13;15.90;1.00